sensor_id;sensor_type;location;lat;lon;timestamp;temperature;humidity
20483;DHT22;10400;53.198;6.592;2022-08-01T00:02:10;18.60;99.90
20483;DHT22;10400;53.198;6.592;2022-08-01T00:04:36;18.60;99.90
20483;DHT22;10400;53.198;6.592;2022-08-01T00:07:02;18.50;99.90
20483;DHT22;10400;53.198;6.592;2022-08-01T00:09:28;18.60;99.90
20483;DHT22;10400;53.198;6.592;2022-08-01T00:11:53;18.50;99.90
20483;DHT22;10400;53.198;6.592;2022-08-01T00:14:19;18.50;99.90
20483;DHT22;10400;53.198;6.592;2022-08-01T00:16:44;18.60;99.90
20483;DHT22;10400;53.198;6.592;2022-08-01T00:19:10;18.50;99.90
20483;DHT22;10400;53.198;6.592;2022-08-01T00:21:36;18.50;99.90
20483;DHT22;10400;53.198;6.592;2022-08-01T00:24:01;18.50;99.90
20483;DHT22;10400;53.198;6.592;2022-08-01T00:26:27;18.60;99.90
20483;DHT22;10400;53.198;6.592;2022-08-01T00:28:53;18.60;99.90
20483;DHT22;10400;53.198;6.592;2022-08-01T00:31:18;18.50;99.90
20483;DHT22;10400;53.198;6.592;2022-08-01T00:33:44;18.60;99.90
20483;DHT22;10400;53.198;6.592;2022-08-01T00:36:10;18.50;99.90
20483;DHT22;10400;53.198;6.592;2022-08-01T00:38:35;18.60;99.90
20483;DHT22;10400;53.198;6.592;2022-08-01T00:41:01;18.50;99.90
20483;DHT22;10400;53.198;6.592;2022-08-01T00:43:26;18.50;99.90
20483;DHT22;10400;53.198;6.592;2022-08-01T00:45:52;18.50;99.90
20483;DHT22;10400;53.198;6.592;2022-08-01T00:48:18;18.60;99.90
20483;DHT22;10400;53.198;6.592;2022-08-01T00:50:43;18.60;99.90
20483;DHT22;10400;53.198;6.592;2022-08-01T00:53:09;18.60;99.90
20483;DHT22;10400;53.198;6.592;2022-08-01T00:55:35;18.60;99.90
20483;DHT22;10400;53.198;6.592;2022-08-01T00:58:01;18.60;99.90
20483;DHT22;10400;53.198;6.592;2022-08-01T01:00:27;18.60;99.90
20483;DHT22;10400;53.198;6.592;2022-08-01T01:02:52;18.60;99.90
20483;DHT22;10400;53.198;6.592;2022-08-01T01:05:18;18.60;99.90
20483;DHT22;10400;53.198;6.592;2022-08-01T01:07:49;18.60;99.90
20483;DHT22;10400;53.198;6.592;2022-08-01T01:10:22;18.60;99.90
20483;DHT22;10400;53.198;6.592;2022-08-01T01:13:09;18.50;99.90
20483;DHT22;10400;53.198;6.592;2022-08-01T01:18:15;18.40;99.90
20483;DHT22;10400;53.198;6.592;2022-08-01T01:20:51;18.40;99.90
20483;DHT22;10400;53.198;6.592;2022-08-01T01:26:38;18.30;99.90
20483;DHT22;10400;53.198;6.592;2022-08-01T01:29:17;18.30;99.90
20483;DHT22;10400;53.198;6.592;2022-08-01T01:31:57;18.30;99.90
20483;DHT22;10400;53.198;6.592;2022-08-01T01:34:24;18.20;99.90
20483;DHT22;10400;53.198;6.592;2022-08-01T01:36:54;18.20;99.90
20483;DHT22;10400;53.198;6.592;2022-08-01T01:39:21;18.20;99.90
20483;DHT22;10400;53.198;6.592;2022-08-01T01:41:48;18.20;99.90
20483;DHT22;10400;53.198;6.592;2022-08-01T01:44:15;18.20;99.90
20483;DHT22;10400;53.198;6.592;2022-08-01T01:46:41;18.10;99.90
20483;DHT22;10400;53.198;6.592;2022-08-01T01:49:08;18.10;99.90
20483;DHT22;10400;53.198;6.592;2022-08-01T01:51:36;18.10;99.90
20483;DHT22;10400;53.198;6.592;2022-08-01T01:54:03;18.00;99.90
20483;DHT22;10400;53.198;6.592;2022-08-01T01:56:30;18.00;99.90
20483;DHT22;10400;53.198;6.592;2022-08-01T01:59:01;18.00;99.90
20483;DHT22;10400;53.198;6.592;2022-08-01T02:01:29;18.00;99.90
20483;DHT22;10400;53.198;6.592;2022-08-01T02:03:57;18.00;99.90
20483;DHT22;10400;53.198;6.592;2022-08-01T02:06:24;18.10;99.90
20483;DHT22;10400;53.198;6.592;2022-08-01T02:08:52;18.00;99.90
20483;DHT22;10400;53.198;6.592;2022-08-01T02:11:20;18.00;99.90
20483;DHT22;10400;53.198;6.592;2022-08-01T02:14:02;18.00;99.90
20483;DHT22;10400;53.198;6.592;2022-08-01T02:16:33;18.00;99.90
20483;DHT22;10400;53.198;6.592;2022-08-01T02:18:59;18.00;99.90
20483;DHT22;10400;53.198;6.592;2022-08-01T02:21:30;18.00;99.90
20483;DHT22;10400;53.198;6.592;2022-08-01T02:24:00;18.00;99.90
20483;DHT22;10400;53.198;6.592;2022-08-01T02:26:28;18.00;99.90
20483;DHT22;10400;53.198;6.592;2022-08-01T02:28:57;18.00;99.90
20483;DHT22;10400;53.198;6.592;2022-08-01T02:31:25;18.00;99.90
20483;DHT22;10400;53.198;6.592;2022-08-01T02:33:59;18.00;99.90
20483;DHT22;10400;53.198;6.592;2022-08-01T02:36:28;18.00;99.90
20483;DHT22;10400;53.198;6.592;2022-08-01T02:38:56;18.00;99.90
20483;DHT22;10400;53.198;6.592;2022-08-01T02:41:23;18.00;99.90
20483;DHT22;10400;53.198;6.592;2022-08-01T02:43:52;18.00;99.90
20483;DHT22;10400;53.198;6.592;2022-08-01T02:46:25;17.90;99.90
20483;DHT22;10400;53.198;6.592;2022-08-01T02:48:53;17.90;99.90
20483;DHT22;10400;53.198;6.592;2022-08-01T02:51:23;17.80;99.90
20483;DHT22;10400;53.198;6.592;2022-08-01T02:53:52;17.90;99.90
20483;DHT22;10400;53.198;6.592;2022-08-01T02:56:19;17.90;99.90
20483;DHT22;10400;53.198;6.592;2022-08-01T02:58:47;17.90;99.90
20483;DHT22;10400;53.198;6.592;2022-08-01T03:01:15;17.90;99.90
20483;DHT22;10400;53.198;6.592;2022-08-01T03:03:42;17.90;99.90
20483;DHT22;10400;53.198;6.592;2022-08-01T03:06:08;17.80;99.90
20483;DHT22;10400;53.198;6.592;2022-08-01T03:08:35;17.80;99.90
20483;DHT22;10400;53.198;6.592;2022-08-01T03:11:02;17.80;99.90
20483;DHT22;10400;53.198;6.592;2022-08-01T03:13:29;17.80;99.90
20483;DHT22;10400;53.198;6.592;2022-08-01T03:15:57;17.70;99.90
20483;DHT22;10400;53.198;6.592;2022-08-01T03:18:24;17.70;99.90
20483;DHT22;10400;53.198;6.592;2022-08-01T03:20:52;17.70;99.90
20483;DHT22;10400;53.198;6.592;2022-08-01T03:23:21;17.60;99.90
20483;DHT22;10400;53.198;6.592;2022-08-01T03:25:49;17.60;99.90
20483;DHT22;10400;53.198;6.592;2022-08-01T03:28:16;17.70;99.90
20483;DHT22;10400;53.198;6.592;2022-08-01T03:30:43;17.60;99.90
20483;DHT22;10400;53.198;6.592;2022-08-01T03:33:09;17.60;99.90
20483;DHT22;10400;53.198;6.592;2022-08-01T03:35:52;17.60;99.90
20483;DHT22;10400;53.198;6.592;2022-08-01T03:38:21;17.60;99.90
20483;DHT22;10400;53.198;6.592;2022-08-01T03:40:55;17.60;99.90
20483;DHT22;10400;53.198;6.592;2022-08-01T03:43:50;17.60;99.90
20483;DHT22;10400;53.198;6.592;2022-08-01T03:46:29;17.60;99.90
20483;DHT22;10400;53.198;6.592;2022-08-01T03:48:55;17.60;99.90
20483;DHT22;10400;53.198;6.592;2022-08-01T03:51:24;17.60;99.90
20483;DHT22;10400;53.198;6.592;2022-08-01T03:53:50;17.60;99.90
20483;DHT22;10400;53.198;6.592;2022-08-01T03:56:18;17.60;99.90
20483;DHT22;10400;53.198;6.592;2022-08-01T03:58:45;17.60;99.90
20483;DHT22;10400;53.198;6.592;2022-08-01T04:01:11;17.50;99.90
20483;DHT22;10400;53.198;6.592;2022-08-01T04:03:38;17.50;99.90
20483;DHT22;10400;53.198;6.592;2022-08-01T04:06:07;17.50;99.90
20483;DHT22;10400;53.198;6.592;2022-08-01T04:08:39;17.60;99.90
20483;DHT22;10400;53.198;6.592;2022-08-01T04:11:05;17.60;99.90
20483;DHT22;10400;53.198;6.592;2022-08-01T04:13:33;17.50;99.90
20483;DHT22;10400;53.198;6.592;2022-08-01T04:15:58;17.50;99.90
20483;DHT22;10400;53.198;6.592;2022-08-01T04:18:24;17.50;99.90
20483;DHT22;10400;53.198;6.592;2022-08-01T04:20:50;17.50;99.90
20483;DHT22;10400;53.198;6.592;2022-08-01T04:23:17;17.40;99.90
20483;DHT22;10400;53.198;6.592;2022-08-01T04:25:44;17.40;99.90
20483;DHT22;10400;53.198;6.592;2022-08-01T04:28:13;17.30;99.90
20483;DHT22;10400;53.198;6.592;2022-08-01T04:30:43;17.40;99.90
20483;DHT22;10400;53.198;6.592;2022-08-01T04:33:13;17.40;99.90
20483;DHT22;10400;53.198;6.592;2022-08-01T04:35:44;17.40;99.90
20483;DHT22;10400;53.198;6.592;2022-08-01T04:38:12;17.40;99.90
20483;DHT22;10400;53.198;6.592;2022-08-01T04:40:40;17.40;99.90
20483;DHT22;10400;53.198;6.592;2022-08-01T04:43:07;17.50;99.90
20483;DHT22;10400;53.198;6.592;2022-08-01T04:45:33;17.50;99.90
20483;DHT22;10400;53.198;6.592;2022-08-01T04:48:00;17.40;99.90
20483;DHT22;10400;53.198;6.592;2022-08-01T04:50:26;17.40;99.90
20483;DHT22;10400;53.198;6.592;2022-08-01T04:52:52;17.40;99.90
20483;DHT22;10400;53.198;6.592;2022-08-01T04:55:17;17.40;99.90
20483;DHT22;10400;53.198;6.592;2022-08-01T04:57:44;17.40;99.90
20483;DHT22;10400;53.198;6.592;2022-08-01T05:00:11;17.30;99.90
20483;DHT22;10400;53.198;6.592;2022-08-01T05:02:37;17.40;99.90
20483;DHT22;10400;53.198;6.592;2022-08-01T05:05:03;17.30;99.90
20483;DHT22;10400;53.198;6.592;2022-08-01T05:07:31;17.30;99.90
20483;DHT22;10400;53.198;6.592;2022-08-01T05:09:57;17.30;99.90
20483;DHT22;10400;53.198;6.592;2022-08-01T05:12:22;17.40;99.90
20483;DHT22;10400;53.198;6.592;2022-08-01T05:14:48;17.40;99.90
20483;DHT22;10400;53.198;6.592;2022-08-01T05:17:14;17.40;99.90
20483;DHT22;10400;53.198;6.592;2022-08-01T05:19:40;17.40;99.90
20483;DHT22;10400;53.198;6.592;2022-08-01T05:22:08;17.40;99.90
20483;DHT22;10400;53.198;6.592;2022-08-01T05:24:36;17.50;99.90
20483;DHT22;10400;53.198;6.592;2022-08-01T05:27:02;17.40;99.90
20483;DHT22;10400;53.198;6.592;2022-08-01T05:29:28;17.50;99.90
20483;DHT22;10400;53.198;6.592;2022-08-01T05:31:54;17.50;99.90
20483;DHT22;10400;53.198;6.592;2022-08-01T05:34:20;17.50;99.90
20483;DHT22;10400;53.198;6.592;2022-08-01T05:36:47;17.40;99.90
20483;DHT22;10400;53.198;6.592;2022-08-01T05:39:12;17.50;99.90
20483;DHT22;10400;53.198;6.592;2022-08-01T05:41:39;17.60;99.90
20483;DHT22;10400;53.198;6.592;2022-08-01T05:44:05;17.60;99.90
20483;DHT22;10400;53.198;6.592;2022-08-01T05:46:31;17.60;99.90
20483;DHT22;10400;53.198;6.592;2022-08-01T05:49:00;17.60;99.90
20483;DHT22;10400;53.198;6.592;2022-08-01T05:51:26;17.60;99.90
20483;DHT22;10400;53.198;6.592;2022-08-01T05:53:52;17.70;99.90
20483;DHT22;10400;53.198;6.592;2022-08-01T05:56:18;17.60;99.90
20483;DHT22;10400;53.198;6.592;2022-08-01T05:58:44;17.70;99.90
20483;DHT22;10400;53.198;6.592;2022-08-01T06:01:10;17.60;99.90
20483;DHT22;10400;53.198;6.592;2022-08-01T06:03:35;17.60;99.90
20483;DHT22;10400;53.198;6.592;2022-08-01T06:06:02;17.60;99.90
20483;DHT22;10400;53.198;6.592;2022-08-01T06:08:28;17.60;99.90
20483;DHT22;10400;53.198;6.592;2022-08-01T06:10:54;17.70;99.90
20483;DHT22;10400;53.198;6.592;2022-08-01T06:13:20;17.60;99.90
20483;DHT22;10400;53.198;6.592;2022-08-01T06:15:46;17.50;99.90
20483;DHT22;10400;53.198;6.592;2022-08-01T06:18:12;17.40;99.90
20483;DHT22;10400;53.198;6.592;2022-08-01T06:20:38;17.50;99.90
20483;DHT22;10400;53.198;6.592;2022-08-01T06:23:03;17.40;99.90
20483;DHT22;10400;53.198;6.592;2022-08-01T06:25:30;17.50;99.90
20483;DHT22;10400;53.198;6.592;2022-08-01T06:27:55;17.50;99.90
20483;DHT22;10400;53.198;6.592;2022-08-01T06:30:21;17.50;99.90
20483;DHT22;10400;53.198;6.592;2022-08-01T06:32:47;17.60;99.90
20483;DHT22;10400;53.198;6.592;2022-08-01T06:35:14;17.60;99.90
20483;DHT22;10400;53.198;6.592;2022-08-01T06:37:40;17.50;99.90
20483;DHT22;10400;53.198;6.592;2022-08-01T06:40:08;17.50;99.90
20483;DHT22;10400;53.198;6.592;2022-08-01T06:42:35;17.60;99.90
20483;DHT22;10400;53.198;6.592;2022-08-01T06:47:30;17.70;99.90
20483;DHT22;10400;53.198;6.592;2022-08-01T06:49:55;17.70;99.90
20483;DHT22;10400;53.198;6.592;2022-08-01T06:52:21;17.80;99.90
20483;DHT22;10400;53.198;6.592;2022-08-01T06:54:47;17.80;99.90
20483;DHT22;10400;53.198;6.592;2022-08-01T06:57:12;17.80;99.90
20483;DHT22;10400;53.198;6.592;2022-08-01T06:59:38;17.80;99.90
20483;DHT22;10400;53.198;6.592;2022-08-01T07:02:04;17.70;99.90
20483;DHT22;10400;53.198;6.592;2022-08-01T07:04:29;17.80;99.90
20483;DHT22;10400;53.198;6.592;2022-08-01T07:06:56;17.90;99.90
20483;DHT22;10400;53.198;6.592;2022-08-01T07:09:22;18.00;99.90
20483;DHT22;10400;53.198;6.592;2022-08-01T07:11:47;18.00;99.90
20483;DHT22;10400;53.198;6.592;2022-08-01T07:14:13;18.10;99.90
20483;DHT22;10400;53.198;6.592;2022-08-01T07:16:38;18.20;99.90
20483;DHT22;10400;53.198;6.592;2022-08-01T07:19:04;18.10;99.90
20483;DHT22;10400;53.198;6.592;2022-08-01T07:21:30;18.10;99.90
20483;DHT22;10400;53.198;6.592;2022-08-01T07:23:55;18.40;99.90
20483;DHT22;10400;53.198;6.592;2022-08-01T07:26:21;18.40;99.90
20483;DHT22;10400;53.198;6.592;2022-08-01T07:28:47;18.30;99.90
20483;DHT22;10400;53.198;6.592;2022-08-01T07:31:12;18.30;99.90
20483;DHT22;10400;53.198;6.592;2022-08-01T07:33:38;18.40;99.90
20483;DHT22;10400;53.198;6.592;2022-08-01T07:36:04;18.50;99.90
20483;DHT22;10400;53.198;6.592;2022-08-01T07:38:29;18.70;99.90
20483;DHT22;10400;53.198;6.592;2022-08-01T07:40:55;18.70;99.90
20483;DHT22;10400;53.198;6.592;2022-08-01T07:43:21;18.80;99.90
20483;DHT22;10400;53.198;6.592;2022-08-01T07:45:46;19.00;99.90
20483;DHT22;10400;53.198;6.592;2022-08-01T07:48:12;19.00;99.90
20483;DHT22;10400;53.198;6.592;2022-08-01T07:50:37;19.00;99.90
20483;DHT22;10400;53.198;6.592;2022-08-01T07:53:03;19.10;99.90
20483;DHT22;10400;53.198;6.592;2022-08-01T07:55:29;19.10;99.90
20483;DHT22;10400;53.198;6.592;2022-08-01T07:57:55;18.80;99.90
20483;DHT22;10400;53.198;6.592;2022-08-01T08:00:21;18.80;99.90
20483;DHT22;10400;53.198;6.592;2022-08-01T08:02:46;19.10;99.90
20483;DHT22;10400;53.198;6.592;2022-08-01T08:05:12;19.30;99.90
20483;DHT22;10400;53.198;6.592;2022-08-01T08:07:38;19.40;99.90
20483;DHT22;10400;53.198;6.592;2022-08-01T08:10:04;19.60;99.90
20483;DHT22;10400;53.198;6.592;2022-08-01T08:12:31;19.70;99.90
20483;DHT22;10400;53.198;6.592;2022-08-01T08:14:57;19.50;99.90
20483;DHT22;10400;53.198;6.592;2022-08-01T08:17:26;19.10;99.90
20483;DHT22;10400;53.198;6.592;2022-08-01T08:19:52;19.20;99.90
20483;DHT22;10400;53.198;6.592;2022-08-01T08:22:18;19.10;99.90
20483;DHT22;10400;53.198;6.592;2022-08-01T08:24:44;19.10;99.90
20483;DHT22;10400;53.198;6.592;2022-08-01T08:27:10;19.20;99.90
20483;DHT22;10400;53.198;6.592;2022-08-01T08:29:36;19.20;99.90
20483;DHT22;10400;53.198;6.592;2022-08-01T08:32:02;19.40;99.90
20483;DHT22;10400;53.198;6.592;2022-08-01T08:34:28;19.40;99.90
20483;DHT22;10400;53.198;6.592;2022-08-01T08:36:55;19.50;99.90
20483;DHT22;10400;53.198;6.592;2022-08-01T08:39:21;19.10;99.90
20483;DHT22;10400;53.198;6.592;2022-08-01T08:41:47;19.30;99.90
20483;DHT22;10400;53.198;6.592;2022-08-01T08:44:14;19.60;99.90
20483;DHT22;10400;53.198;6.592;2022-08-01T08:46:42;19.70;99.90
20483;DHT22;10400;53.198;6.592;2022-08-01T08:49:08;19.90;99.90
20483;DHT22;10400;53.198;6.592;2022-08-01T08:51:38;20.00;99.90
20483;DHT22;10400;53.198;6.592;2022-08-01T08:54:06;20.00;99.90
20483;DHT22;10400;53.198;6.592;2022-08-01T08:56:34;19.60;99.90
20483;DHT22;10400;53.198;6.592;2022-08-01T08:59:01;19.80;99.90
20483;DHT22;10400;53.198;6.592;2022-08-01T09:01:27;19.70;99.90
20483;DHT22;10400;53.198;6.592;2022-08-01T09:03:53;19.90;99.90
20483;DHT22;10400;53.198;6.592;2022-08-01T09:06:19;19.90;99.90
20483;DHT22;10400;53.198;6.592;2022-08-01T09:08:45;20.00;99.90
20483;DHT22;10400;53.198;6.592;2022-08-01T09:11:11;20.20;99.90
20483;DHT22;10400;53.198;6.592;2022-08-01T09:13:37;20.20;99.90
20483;DHT22;10400;53.198;6.592;2022-08-01T09:16:04;20.10;99.90
20483;DHT22;10400;53.198;6.592;2022-08-01T09:18:39;19.90;99.90
20483;DHT22;10400;53.198;6.592;2022-08-01T09:23:37;20.20;99.90
20483;DHT22;10400;53.198;6.592;2022-08-01T09:26:08;20.40;99.90
20483;DHT22;10400;53.198;6.592;2022-08-01T09:28:35;20.50;99.90
20483;DHT22;10400;53.198;6.592;2022-08-01T09:31:15;20.60;99.90
20483;DHT22;10400;53.198;6.592;2022-08-01T09:33:56;20.20;99.90
20483;DHT22;10400;53.198;6.592;2022-08-01T09:36:27;19.90;99.90
20483;DHT22;10400;53.198;6.592;2022-08-01T09:39:13;20.40;99.90
20483;DHT22;10400;53.198;6.592;2022-08-01T09:41:39;20.50;99.90
20483;DHT22;10400;53.198;6.592;2022-08-01T09:44:05;20.00;99.90
20483;DHT22;10400;53.198;6.592;2022-08-01T09:46:31;20.30;99.90
20483;DHT22;10400;53.198;6.592;2022-08-01T09:49:04;20.50;99.90
20483;DHT22;10400;53.198;6.592;2022-08-01T09:51:32;20.80;99.90
20483;DHT22;10400;53.198;6.592;2022-08-01T09:53:59;20.50;99.90
20483;DHT22;10400;53.198;6.592;2022-08-01T09:56:25;20.10;99.90
20483;DHT22;10400;53.198;6.592;2022-08-01T09:58:58;20.20;99.90
20483;DHT22;10400;53.198;6.592;2022-08-01T10:01:25;20.20;99.90
20483;DHT22;10400;53.198;6.592;2022-08-01T10:04:12;20.20;99.90
20483;DHT22;10400;53.198;6.592;2022-08-01T10:06:39;20.20;99.90
20483;DHT22;10400;53.198;6.592;2022-08-01T10:09:08;20.70;99.90
20483;DHT22;10400;53.198;6.592;2022-08-01T10:11:34;20.90;99.90
20483;DHT22;10400;53.198;6.592;2022-08-01T10:14:04;20.80;99.90
20483;DHT22;10400;53.198;6.592;2022-08-01T10:16:30;20.50;99.90
20483;DHT22;10400;53.198;6.592;2022-08-01T10:18:57;20.50;99.90
20483;DHT22;10400;53.198;6.592;2022-08-01T10:21:25;20.90;99.90
20483;DHT22;10400;53.198;6.592;2022-08-01T10:23:54;21.00;99.90
20483;DHT22;10400;53.198;6.592;2022-08-01T10:26:23;21.00;99.90
20483;DHT22;10400;53.198;6.592;2022-08-01T10:28:51;21.00;99.90
20483;DHT22;10400;53.198;6.592;2022-08-01T10:31:18;21.10;99.90
20483;DHT22;10400;53.198;6.592;2022-08-01T10:33:44;20.80;99.90
20483;DHT22;10400;53.198;6.592;2022-08-01T10:36:10;20.60;99.90
20483;DHT22;10400;53.198;6.592;2022-08-01T10:38:36;20.80;99.90
20483;DHT22;10400;53.198;6.592;2022-08-01T10:41:04;20.90;99.90
20483;DHT22;10400;53.198;6.592;2022-08-01T10:43:30;21.20;99.90
20483;DHT22;10400;53.198;6.592;2022-08-01T10:45:56;21.20;99.90
20483;DHT22;10400;53.198;6.592;2022-08-01T10:51:14;21.00;99.90
20483;DHT22;10400;53.198;6.592;2022-08-01T10:53:52;21.10;99.90
20483;DHT22;10400;53.198;6.592;2022-08-01T10:56:18;21.20;99.90
20483;DHT22;10400;53.198;6.592;2022-08-01T10:58:46;21.30;99.90
20483;DHT22;10400;53.198;6.592;2022-08-01T11:01:31;21.50;99.90
20483;DHT22;10400;53.198;6.592;2022-08-01T11:06:36;21.20;99.90
20483;DHT22;10400;53.198;6.592;2022-08-01T11:09:19;21.00;99.90
20483;DHT22;10400;53.198;6.592;2022-08-01T11:12:13;21.10;99.90
20483;DHT22;10400;53.198;6.592;2022-08-01T11:20:13;21.30;99.90
20483;DHT22;10400;53.198;6.592;2022-08-01T11:30:54;21.20;99.90
20483;DHT22;10400;53.198;6.592;2022-08-01T11:38:44;21.50;99.90
20483;DHT22;10400;53.198;6.592;2022-08-01T11:47:05;21.60;99.90
20483;DHT22;10400;53.198;6.592;2022-08-01T11:49:45;21.40;99.90
20483;DHT22;10400;53.198;6.592;2022-08-01T11:52:27;21.20;99.90
20483;DHT22;10400;53.198;6.592;2022-08-01T11:54:55;21.30;99.90
20483;DHT22;10400;53.198;6.592;2022-08-01T11:57:23;21.40;99.90
20483;DHT22;10400;53.198;6.592;2022-08-01T11:59:52;21.60;99.90
20483;DHT22;10400;53.198;6.592;2022-08-01T12:02:38;21.70;99.90
20483;DHT22;10400;53.198;6.592;2022-08-01T12:05:12;21.60;99.90
20483;DHT22;10400;53.198;6.592;2022-08-01T12:07:39;21.90;99.90
20483;DHT22;10400;53.198;6.592;2022-08-01T12:10:14;22.10;99.90
20483;DHT22;10400;53.198;6.592;2022-08-01T12:12:52;22.00;99.90
20483;DHT22;10400;53.198;6.592;2022-08-01T12:15:20;22.00;99.90
20483;DHT22;10400;53.198;6.592;2022-08-01T12:17:48;21.90;99.90
20483;DHT22;10400;53.198;6.592;2022-08-01T12:20:20;21.80;99.90
20483;DHT22;10400;53.198;6.592;2022-08-01T12:22:46;21.70;99.90
20483;DHT22;10400;53.198;6.592;2022-08-01T12:25:18;21.80;99.90
20483;DHT22;10400;53.198;6.592;2022-08-01T12:27:45;21.80;99.90
20483;DHT22;10400;53.198;6.592;2022-08-01T12:30:13;21.80;99.90
20483;DHT22;10400;53.198;6.592;2022-08-01T12:32:41;21.80;99.90
20483;DHT22;10400;53.198;6.592;2022-08-01T12:35:19;21.50;99.90
20483;DHT22;10400;53.198;6.592;2022-08-01T12:37:49;21.40;99.90
20483;DHT22;10400;53.198;6.592;2022-08-01T12:40:29;21.60;99.90
20483;DHT22;10400;53.198;6.592;2022-08-01T12:43:00;21.40;99.90
20483;DHT22;10400;53.198;6.592;2022-08-01T12:45:44;21.80;99.90
20483;DHT22;10400;53.198;6.592;2022-08-01T12:48:12;22.20;99.90
20483;DHT22;10400;53.198;6.592;2022-08-01T12:50:43;22.50;99.90
20483;DHT22;10400;53.198;6.592;2022-08-01T12:53:10;22.20;99.90
20483;DHT22;10400;53.198;6.592;2022-08-01T12:55:46;22.20;99.90
20483;DHT22;10400;53.198;6.592;2022-08-01T12:58:14;22.00;99.90
20483;DHT22;10400;53.198;6.592;2022-08-01T13:00:40;21.60;99.90
20483;DHT22;10400;53.198;6.592;2022-08-01T13:03:17;21.70;99.90
20483;DHT22;10400;53.198;6.592;2022-08-01T13:08:16;21.90;99.90
20483;DHT22;10400;53.198;6.592;2022-08-01T13:10:42;22.00;99.90
20483;DHT22;10400;53.198;6.592;2022-08-01T13:13:08;22.00;99.90
20483;DHT22;10400;53.198;6.592;2022-08-01T13:15:37;22.00;99.90
20483;DHT22;10400;53.198;6.592;2022-08-01T13:18:24;21.90;99.90
20483;DHT22;10400;53.198;6.592;2022-08-01T13:21:13;21.60;99.90
20483;DHT22;10400;53.198;6.592;2022-08-01T13:23:40;21.90;99.90
20483;DHT22;10400;53.198;6.592;2022-08-01T13:26:06;22.00;99.90
20483;DHT22;10400;53.198;6.592;2022-08-01T13:28:32;22.10;99.90
20483;DHT22;10400;53.198;6.592;2022-08-01T13:31:06;22.30;99.90
20483;DHT22;10400;53.198;6.592;2022-08-01T13:33:44;22.60;99.90
20483;DHT22;10400;53.198;6.592;2022-08-01T13:36:11;22.70;99.90
20483;DHT22;10400;53.198;6.592;2022-08-01T13:38:38;23.00;99.90
20483;DHT22;10400;53.198;6.592;2022-08-01T13:41:23;22.80;99.90
20483;DHT22;10400;53.198;6.592;2022-08-01T13:43:48;22.70;99.90
20483;DHT22;10400;53.198;6.592;2022-08-01T13:46:14;22.90;99.90
20483;DHT22;10400;53.198;6.592;2022-08-01T13:48:40;23.20;99.90
20483;DHT22;10400;53.198;6.592;2022-08-01T13:51:06;23.00;99.90
20483;DHT22;10400;53.198;6.592;2022-08-01T13:53:31;23.30;99.90
20483;DHT22;10400;53.198;6.592;2022-08-01T13:55:57;23.10;99.90
20483;DHT22;10400;53.198;6.592;2022-08-01T13:58:23;22.70;99.90
20483;DHT22;10400;53.198;6.592;2022-08-01T14:00:48;22.40;99.90
20483;DHT22;10400;53.198;6.592;2022-08-01T14:03:14;21.80;99.90
20483;DHT22;10400;53.198;6.592;2022-08-01T14:05:42;21.80;99.90
20483;DHT22;10400;53.198;6.592;2022-08-01T14:08:08;21.80;99.90
20483;DHT22;10400;53.198;6.592;2022-08-01T14:10:34;21.60;99.90
20483;DHT22;10400;53.198;6.592;2022-08-01T14:13:00;21.80;99.90
20483;DHT22;10400;53.198;6.592;2022-08-01T14:15:25;21.80;99.90
20483;DHT22;10400;53.198;6.592;2022-08-01T14:17:51;21.70;99.90
20483;DHT22;10400;53.198;6.592;2022-08-01T14:20:17;21.90;99.90
20483;DHT22;10400;53.198;6.592;2022-08-01T14:22:45;21.90;99.90
20483;DHT22;10400;53.198;6.592;2022-08-01T14:25:11;21.50;99.90
20483;DHT22;10400;53.198;6.592;2022-08-01T14:27:37;21.70;99.90
20483;DHT22;10400;53.198;6.592;2022-08-01T14:30:06;21.80;99.90
20483;DHT22;10400;53.198;6.592;2022-08-01T14:32:32;22.00;99.90
20483;DHT22;10400;53.198;6.592;2022-08-01T14:34:59;21.90;99.90
20483;DHT22;10400;53.198;6.592;2022-08-01T14:37:25;22.10;99.90
20483;DHT22;10400;53.198;6.592;2022-08-01T14:39:50;22.00;99.90
20483;DHT22;10400;53.198;6.592;2022-08-01T14:42:16;21.90;99.90
20483;DHT22;10400;53.198;6.592;2022-08-01T14:44:41;21.90;99.90
20483;DHT22;10400;53.198;6.592;2022-08-01T14:47:07;22.00;99.90
20483;DHT22;10400;53.198;6.592;2022-08-01T14:49:33;21.80;99.90
20483;DHT22;10400;53.198;6.592;2022-08-01T14:51:59;21.80;99.90
20483;DHT22;10400;53.198;6.592;2022-08-01T14:54:24;21.90;99.90
20483;DHT22;10400;53.198;6.592;2022-08-01T14:56:50;21.80;99.90
20483;DHT22;10400;53.198;6.592;2022-08-01T14:59:18;22.00;99.90
20483;DHT22;10400;53.198;6.592;2022-08-01T15:01:43;21.80;99.90
20483;DHT22;10400;53.198;6.592;2022-08-01T15:04:09;22.00;99.90
20483;DHT22;10400;53.198;6.592;2022-08-01T15:06:35;21.60;99.90
20483;DHT22;10400;53.198;6.592;2022-08-01T15:09:00;21.50;99.90
20483;DHT22;10400;53.198;6.592;2022-08-01T15:11:26;21.40;99.90
20483;DHT22;10400;53.198;6.592;2022-08-01T15:13:52;21.70;99.90
20483;DHT22;10400;53.198;6.592;2022-08-01T15:16:36;21.80;99.90
20483;DHT22;10400;53.198;6.592;2022-08-01T15:19:02;21.50;99.90
20483;DHT22;10400;53.198;6.592;2022-08-01T15:21:28;21.80;99.90
20483;DHT22;10400;53.198;6.592;2022-08-01T15:23:54;21.60;99.90
20483;DHT22;10400;53.198;6.592;2022-08-01T15:26:19;21.40;99.90
20483;DHT22;10400;53.198;6.592;2022-08-01T15:28:45;21.60;99.90
20483;DHT22;10400;53.198;6.592;2022-08-01T15:31:10;21.50;99.90
20483;DHT22;10400;53.198;6.592;2022-08-01T15:33:36;21.60;99.90
20483;DHT22;10400;53.198;6.592;2022-08-01T15:36:02;21.80;99.90
20483;DHT22;10400;53.198;6.592;2022-08-01T15:38:27;21.50;99.90
20483;DHT22;10400;53.198;6.592;2022-08-01T15:40:53;21.50;99.90
20483;DHT22;10400;53.198;6.592;2022-08-01T15:43:18;21.50;99.90
20483;DHT22;10400;53.198;6.592;2022-08-01T15:45:44;21.80;99.90
20483;DHT22;10400;53.198;6.592;2022-08-01T15:48:10;21.80;99.90
20483;DHT22;10400;53.198;6.592;2022-08-01T15:50:35;21.90;99.90
20483;DHT22;10400;53.198;6.592;2022-08-01T15:53:03;22.00;99.90
20483;DHT22;10400;53.198;6.592;2022-08-01T15:55:29;22.20;99.90
20483;DHT22;10400;53.198;6.592;2022-08-01T15:57:55;22.00;99.90
20483;DHT22;10400;53.198;6.592;2022-08-01T16:00:20;21.80;99.90
20483;DHT22;10400;53.198;6.592;2022-08-01T16:02:46;21.80;99.90
20483;DHT22;10400;53.198;6.592;2022-08-01T16:05:12;21.80;99.90
20483;DHT22;10400;53.198;6.592;2022-08-01T16:07:38;21.90;99.90
20483;DHT22;10400;53.198;6.592;2022-08-01T16:10:04;22.00;99.90
20483;DHT22;10400;53.198;6.592;2022-08-01T16:12:30;22.10;99.90
20483;DHT22;10400;53.198;6.592;2022-08-01T16:14:56;21.60;99.90
20483;DHT22;10400;53.198;6.592;2022-08-01T16:17:22;21.80;99.90
20483;DHT22;10400;53.198;6.592;2022-08-01T16:19:47;21.90;99.90